PPIZ METAR and TAF weather

Enter ICAO airport designator
Station Type Date Time Source
PPIZ METAR 2023/02/08 22:56 UTC NOAA

PPIZ 082256Z AUTO 06011KT 10SM OVC027 M28/M31 A3005 RMK AO2 SNE24 SLP179 P0000 T12781306 FZRANO


Station Type Date Time Source
PPIZ Decoded METAR 2023/02/08 22:56 UTC NOAA

Point Lay, Point Lay LRRS Airport, AK, United States (PPIZ) 69-43N 163-00W
Feb 08, 2023 - 05:56 PM EST / 2023.02.08 2256 UTC
Wind: from the ENE (060 degrees) at 13 MPH (11 KT):0
Visibility: 10 mile(s):0
Sky conditions: overcast
Precipitation last hour: A trace
Temperature: -18.0 F (-27.8 C)
Windchill: -41 F (-41 C):2
Dew Point: -23.1 F (-30.6 C)
Relative Humidity: 76%
Pressure (altimeter): 30.05 in. Hg (1017 hPa)
ob: PPIZ 082256Z AUTO 06011KT 10SM OVC027 M28/M31 A3005 RMK AO2 SNE24 SLP179 P0000 T12781306 FZRANO
cycle: 23

Station Type Date Time Source
PPIZ TAF UTC NOAA

Error!

Example: see airport list